Time;durP1;ratioP1;P1;durP2;ratioP2;P2;SDS_P1;SDS_P2;PMS_P1;PMS_P2;Temp;Humidity;BMP_temperature;BMP_pressure;BME280_temperature;BME280_humidity;BME280_pressure;Samples;Min_cycle;Max_cycle;Signal;HPM_P1;HPM_P2
2022/05/05 00:00:13;;;;;;;13.13;8.80;;;7.20;99.90;;;;;;4918682;29;20043;-90
2022/05/05 00:02:39;;;;;;;12.05;7.93;;;7.30;99.90;;;;;;4919918;29;20079;-91
2022/05/05 00:05:05;;;;;;;12.30;6.32;;;7.30;99.90;;;;;;4905811;29;20349;-90
2022/05/05 00:07:31;;;;;;;11.63;5.07;;;7.20;99.90;;;;;;4918997;29;20131;-89
2022/05/05 00:09:56;;;;;;;11.93;6.57;;;7.10;99.90;;;;;;4911454;29;20126;-90
2022/05/05 00:15:07;;;;;;;12.88;6.25;;;7.20;99.90;;;;;;4918579;29;20054;-91
2022/05/05 00:17:34;;;;;;;10.02;4.45;;;7.10;99.90;;;;;;4889716;29;20852;-90
2022/05/05 00:20:00;;;;;;;12.40;6.65;;;7.10;99.90;;;;;;4900353;29;20047;-90
2022/05/05 00:22:26;;;;;;;10.73;5.35;;;7.10;99.90;;;;;;4925728;29;20126;-91
2022/05/05 00:24:51;;;;;;;12.93;5.78;;;7.00;99.90;;;;;;4917189;29;20122;-90
2022/05/05 00:27:17;;;;;;;12.35;7.85;;;7.00;99.90;;;;;;4917447;29;20040;-91
2022/05/05 00:29:43;;;;;;;13.23;5.82;;;7.10;99.90;;;;;;4919830;29;20039;-91
2022/05/05 00:32:08;;;;;;;12.75;5.97;;;7.00;99.90;;;;;;4889688;29;20044;-89
2022/05/05 00:34:34;;;;;;;12.57;5.22;;;7.00;99.90;;;;;;4884133;29;20044;-91
2022/05/05 00:36:59;;;;;;;11.15;5.53;;;7.00;99.90;;;;;;4885018;29;20040;-91
2022/05/05 00:39:25;;;;;;;10.40;5.38;;;7.00;99.90;;;;;;4898477;29;20059;-90
2022/05/05 00:41:51;;;;;;;13.05;6.53;;;7.00;99.90;;;;;;4900425;29;20115;-89
2022/05/05 00:44:17;;;;;;;12.75;7.75;;;7.00;99.90;;;;;;4904671;29;20132;-90
2022/05/05 00:46:50;;;;;;;11.40;5.32;;;7.10;99.90;;;;;;4873060;29;20130;-90
2022/05/05 00:49:16;;;;;;;12.55;5.68;;;7.00;99.90;;;;;;4904068;29;20533;-90
2022/05/05 00:51:41;;;;;;;10.65;7.35;;;7.00;99.90;;;;;;4903821;29;20478;-89
2022/05/05 00:54:07;;;;;;;11.75;5.93;;;7.10;99.90;;;;;;4905755;29;20042;-90
2022/05/05 00:56:34;;;;;;;11.05;5.05;;;7.00;99.90;;;;;;4898129;29;20041;-90
2022/05/05 00:59:00;;;;;;;14.38;7.25;;;7.00;99.90;;;;;;4888244;29;20048;-90
2022/05/05 01:01:26;;;;;;;14.30;8.38;;;7.00;99.90;;;;;;4921580;29;20040;-90
2022/05/05 01:03:52;;;;;;;11.95;5.53;;;7.10;99.90;;;;;;4884211;29;20467;-92
2022/05/05 01:06:18;;;;;;;12.30;5.38;;;7.00;99.90;;;;;;4906202;29;20161;-90
2022/05/05 01:08:45;;;;;;;13.25;6.18;;;7.00;99.90;;;;;;4897671;29;20057;-90
2022/05/05 01:11:11;;;;;;;10.05;5.93;;;7.00;99.90;;;;;;4904138;29;20060;-90
2022/05/05 01:13:41;;;;;;;10.40;5.78;;;7.00;99.90;;;;;;4899553;29;20060;-90
2022/05/05 01:16:09;;;;;;;13.68;8.38;;;7.00;99.90;;;;;;4891937;29;20051;-91
2022/05/05 01:18:34;;;;;;;13.32;5.45;;;7.10;99.90;;;;;;4898789;29;20040;-90
2022/05/05 01:21:00;;;;;;;14.10;6.10;;;7.00;99.90;;;;;;4908730;29;20048;-90
2022/05/05 01:23:26;;;;;;;11.85;6.68;;;7.10;99.90;;;;;;4899552;29;20043;-89
2022/05/05 01:28:48;;;;;;;13.82;6.30;;;7.10;99.90;;;;;;4900319;29;20113;-90
2022/05/05 01:31:14;;;;;;;13.30;8.10;;;7.10;99.90;;;;;;4909299;29;20049;-89
2022/05/05 01:33:40;;;;;;;13.32;6.15;;;7.10;99.90;;;;;;4900864;29;20421;-90
2022/05/05 01:36:06;;;;;;;10.30;6.70;;;7.10;99.90;;;;;;4909260;29;20044;-91
2022/05/05 01:38:40;;;;;;;13.23;8.23;;;7.10;99.90;;;;;;4900638;29;20119;-90
2022/05/05 01:41:11;;;;;;;13.00;6.45;;;7.10;99.90;;;;;;4883773;29;20135;-90
2022/05/05 01:43:38;;;;;;;10.65;5.78;;;7.00;99.90;;;;;;4889430;29;20037;-91
2022/05/05 01:46:05;;;;;;;14.35;6.40;;;7.00;99.90;;;;;;4900905;29;20187;-90
2022/05/05 01:48:32;;;;;;;14.27;9.18;;;7.00;99.90;;;;;;4901688;29;20041;-90
2022/05/05 01:50:57;;;;;;;12.20;6.72;;;7.00;99.90;;;;;;4885911;29;20060;-90
2022/05/05 01:53:23;;;;;;;14.75;8.98;;;7.00;99.90;;;;;;4882709;29;20040;-91
2022/05/05 01:55:49;;;;;;;12.35;6.10;;;7.00;99.90;;;;;;4903769;29;20356;-90
2022/05/05 01:58:15;;;;;;;10.35;5.00;;;7.00;99.90;;;;;;4888646;29;20208;-90
2022/05/05 02:00:40;;;;;;;11.48;5.70;;;6.90;99.90;;;;;;4885638;29;20056;-89
2022/05/05 02:03:15;;;;;;;13.43;9.40;;;6.90;99.90;;;;;;4902304;29;20512;-91
2022/05/05 02:05:42;;;;;;;14.32;9.27;;;6.90;99.90;;;;;;4909905;29;20048;-89
2022/05/05 02:08:09;;;;;;;11.23;6.05;;;7.00;99.90;;;;;;4902705;29;20048;-90
2022/05/05 02:10:35;;;;;;;14.05;9.30;;;6.90;99.90;;;;;;4903810;29;20051;-90
2022/05/05 02:13:00;;;;;;;10.70;6.03;;;6.90;99.90;;;;;;4912077;29;20385;-90
2022/05/05 02:15:27;;;;;;;13.57;5.75;;;6.90;99.90;;;;;;4918116;29;20095;-91
2022/05/05 02:17:53;;;;;;;13.10;9.38;;;6.80;99.90;;;;;;4920056;29;20103;-90
2022/05/05 02:20:19;;;;;;;12.30;6.65;;;6.90;99.90;;;;;;4899304;29;20138;-90
2022/05/05 02:22:44;;;;;;;16.67;7.65;;;6.80;99.90;;;;;;4900645;29;20052;-90
2022/05/05 02:25:10;;;;;;;12.85;6.88;;;6.80;99.90;;;;;;4904219;29;20083;-89
2022/05/05 02:27:47;;;;;;;14.43;6.60;;;6.70;99.90;;;;;;4888241;29;20037;-90
2022/05/05 02:30:12;;;;;;;14.40;10.00;;;6.70;99.90;;;;;;4906571;29;20072;-91
2022/05/05 02:32:38;;;;;;;12.38;6.65;;;6.70;99.90;;;;;;4911049;29;20059;-90
2022/05/05 02:35:04;;;;;;;14.60;7.32;;;6.70;99.90;;;;;;4915822;29;20051;-89
2022/05/05 02:40:14;;;;;;;11.88;6.85;;;6.60;99.90;;;;;;4894821;29;20052;-90
2022/05/05 02:42:40;;;;;;;12.90;7.57;;;6.60;99.90;;;;;;4892976;29;20048;-90
2022/05/05 02:45:05;;;;;;;12.68;7.20;;;6.60;99.90;;;;;;4912646;29;20052;-90
2022/05/05 02:47:31;;;;;;;14.50;6.45;;;6.60;99.90;;;;;;4907734;29;20051;-91
2022/05/05 02:49:56;;;;;;;13.18;7.43;;;6.50;99.90;;;;;;4920382;29;20047;-90
2022/05/05 02:52:22;;;;;;;12.63;6.60;;;6.50;99.90;;;;;;4908166;29;20044;-90
2022/05/05 02:54:47;;;;;;;13.77;5.93;;;6.40;99.90;;;;;;4916486;29;20057;-89
2022/05/05 02:57:18;;;;;;;12.25;9.50;;;6.40;99.90;;;;;;4883913;29;20048;-90
2022/05/05 02:59:44;;;;;;;12.25;6.57;;;6.50;99.90;;;;;;4891757;29;20119;-90
2022/05/05 03:02:09;;;;;;;11.52;5.35;;;6.40;99.90;;;;;;4893165;29;20076;-91
2022/05/05 03:04:35;;;;;;;12.65;7.18;;;6.40;99.90;;;;;;4901828;29;20086;-90
2022/05/05 03:07:00;;;;;;;12.95;6.60;;;6.30;99.90;;;;;;4893018;29;21263;-90
2022/05/05 03:09:26;;;;;;;14.27;6.85;;;6.30;99.90;;;;;;4894425;29;20485;-90
2022/05/05 03:11:52;;;;;;;14.85;10.75;;;6.30;99.90;;;;;;4897754;29;20043;-89
2022/05/05 03:14:17;;;;;;;15.48;7.70;;;6.30;99.90;;;;;;4915746;29;20032;-89
2022/05/05 03:16:43;;;;;;;13.57;7.32;;;6.30;99.90;;;;;;4918698;29;20041;-91
2022/05/05 03:19:09;;;;;;;12.32;7.40;;;6.30;99.90;;;;;;4927916;29;20227;-89
2022/05/05 03:21:36;;;;;;;14.32;6.40;;;6.20;99.90;;;;;;4897221;29;20068;-90
2022/05/05 03:24:01;;;;;;;14.60;7.43;;;6.30;99.90;;;;;;4880870;29;20063;-89
2022/05/05 03:26:27;;;;;;;16.27;7.18;;;6.30;99.90;;;;;;4897843;29;20505;-90
2022/05/05 03:28:53;;;;;;;14.63;8.27;;;6.20;99.90;;;;;;4880188;29;20481;-90
2022/05/05 03:31:18;;;;;;;16.27;8.57;;;6.20;99.90;;;;;;4896829;29;20123;-89
2022/05/05 03:33:44;;;;;;;14.27;6.78;;;6.30;99.90;;;;;;4910114;29;20851;-90
2022/05/05 03:36:09;;;;;;;17.83;8.32;;;6.30;99.90;;;;;;4912466;29;20048;-89
2022/05/05 03:38:35;;;;;;;15.60;11.40;;;6.20;99.90;;;;;;4941508;29;20400;-89
2022/05/05 03:41:01;;;;;;;14.63;8.52;;;6.40;99.90;;;;;;4920756;29;20055;-89
2022/05/05 03:43:26;;;;;;;13.88;6.95;;;6.30;99.90;;;;;;4924512;29;20043;-90
2022/05/05 03:45:52;;;;;;;13.77;7.00;;;6.20;99.90;;;;;;4896398;29;20047;-90
2022/05/05 03:48:17;;;;;;;12.05;7.35;;;6.20;99.90;;;;;;4920421;29;20044;-90
2022/05/05 03:50:43;;;;;;;14.07;8.18;;;6.20;99.90;;;;;;4900949;29;20391;-90
2022/05/05 03:53:09;;;;;;;13.35;6.82;;;6.20;99.90;;;;;;4905775;29;20047;-90
2022/05/05 03:55:34;;;;;;;14.35;7.13;;;6.20;99.90;;;;;;4919286;29;20046;-91
2022/05/05 03:58:00;;;;;;;15.50;8.05;;;6.20;99.90;;;;;;4907051;29;20405;-90
2022/05/05 04:00:26;;;;;;;15.10;8.80;;;6.10;99.90;;;;;;4905740;29;20051;-90
2022/05/05 04:05:38;;;;;;;15.98;8.88;;;6.20;99.90;;;;;;4909458;29;20536;-90
2022/05/05 04:08:05;;;;;;;16.08;8.52;;;6.20;99.90;;;;;;4917983;29;20106;-90
2022/05/05 04:10:31;;;;;;;16.10;8.80;;;6.20;99.90;;;;;;4899842;29;20043;-89
2022/05/05 04:12:57;;;;;;;15.88;8.07;;;6.20;99.90;;;;;;4911616;29;20059;-91
2022/05/05 04:15:23;;;;;;;17.85;12.68;;;6.30;99.90;;;;;;4903058;29;20454;-89
2022/05/05 04:17:49;;;;;;;14.68;8.07;;;6.40;99.90;;;;;;4921673;29;20044;-90
2022/05/05 04:20:15;;;;;;;14.65;7.20;;;6.40;99.90;;;;;;4912017;29;20343;-90
2022/05/05 04:22:41;;;;;;;15.23;7.63;;;6.30;99.90;;;;;;4913252;29;20040;-89
2022/05/05 04:25:08;;;;;;;17.95;8.18;;;6.40;99.90;;;;;;4912699;29;20449;-89
2022/05/05 04:27:35;;;;;;;15.15;6.90;;;6.40;99.90;;;;;;4933881;29;20059;-89
2022/05/05 04:30:02;;;;;;;17.52;8.45;;;6.40;99.90;;;;;;4920630;29;20052;-91
2022/05/05 04:32:28;;;;;;;15.77;8.10;;;6.50;99.90;;;;;;4911954;29;20525;-90
2022/05/05 04:34:54;;;;;;;15.73;9.20;;;6.50;99.90;;;;;;4918339;29;20130;-89
2022/05/05 04:37:23;;;;;;;16.63;12.45;;;6.50;99.90;;;;;;4906969;29;20407;-89
2022/05/05 04:39:48;;;;;;;16.27;8.93;;;6.60;99.90;;;;;;4919722;29;20078;-91
2022/05/05 04:42:15;;;;;;;16.80;8.68;;;6.60;99.90;;;;;;4917183;29;20039;-90
2022/05/05 04:44:41;;;;;;;16.85;12.23;;;6.60;99.90;;;;;;4941159;29;20369;-91
2022/05/05 04:47:07;;;;;;;16.30;8.50;;;6.70;99.90;;;;;;4907462;29;20050;-90
2022/05/05 04:52:33;;;;;;;14.50;7.80;;;6.70;99.90;;;;;;5387689;23;20330;-94
2022/05/05 04:54:59;;;;;;;20.42;9.93;;;6.70;99.90;;;;;;4955282;28;20051;-95
2022/05/05 04:57:25;;;;;;;20.67;10.07;;;6.80;99.90;;;;;;4944785;28;20106;-92
2022/05/05 04:59:51;;;;;;;19.63;10.00;;;6.80;99.90;;;;;;4945443;29;20551;-92
2022/05/05 05:02:16;;;;;;;17.73;9.52;;;6.90;99.90;;;;;;4945633;29;20048;-90
2022/05/05 05:04:42;;;;;;;15.77;8.60;;;6.90;99.90;;;;;;4967250;28;20070;-91
2022/05/05 05:07:08;;;;;;;22.38;10.50;;;7.00;99.90;;;;;;4951542;28;20047;-90
2022/05/05 05:09:34;;;;;;;19.83;13.40;;;7.00;99.90;;;;;;4972202;28;20106;-92
2022/05/05 05:12:00;;;;;;;19.83;13.90;;;7.10;99.90;;;;;;4950617;29;20039;-91
2022/05/05 05:14:26;;;;;;;18.75;13.20;;;7.20;99.90;;;;;;4945083;29;20067;-94
2022/05/05 05:16:52;;;;;;;17.75;11.35;;;7.30;99.90;;;;;;4949913;29;20050;-92
2022/05/05 05:19:17;;;;;;;17.27;8.98;;;7.30;99.90;;;;;;4946598;28;20062;-92
2022/05/05 05:21:43;;;;;;;16.42;13.65;;;7.40;99.90;;;;;;4944157;29;20039;-93
2022/05/05 05:24:09;;;;;;;15.88;10.60;;;7.50;99.90;;;;;;4928170;29;20142;-90
2022/05/05 05:26:34;;;;;;;17.02;10.25;;;7.50;99.90;;;;;;4927854;29;20040;-91
2022/05/05 05:29:00;;;;;;;17.42;10.77;;;7.60;99.90;;;;;;4948815;28;20043;-90
2022/05/05 05:31:26;;;;;;;15.75;11.77;;;7.60;99.90;;;;;;4936786;29;20090;-87
2022/05/05 05:33:52;;;;;;;16.60;10.65;;;7.80;99.90;;;;;;4947976;28;20404;-93
2022/05/05 05:36:18;;;;;;;16.00;12.73;;;7.80;99.90;;;;;;4930037;28;20035;-94
2022/05/05 05:38:44;;;;;;;17.85;11.38;;;7.90;99.90;;;;;;4931891;29;20106;-93
2022/05/05 05:41:10;;;;;;;16.92;13.00;;;8.00;99.90;;;;;;4933686;29;20404;-93
2022/05/05 05:43:35;;;;;;;18.52;13.60;;;8.10;99.90;;;;;;4922977;29;20043;-91
2022/05/05 05:46:01;;;;;;;18.77;14.00;;;8.20;99.90;;;;;;4942434;29;20121;-92
2022/05/05 05:48:27;;;;;;;20.83;16.50;;;8.40;99.90;;;;;;4926667;29;20737;-91
2022/05/05 05:50:52;;;;;;;19.42;15.23;;;8.50;99.90;;;;;;4929290;28;20043;-93
2022/05/05 05:53:18;;;;;;;19.08;14.88;;;8.70;99.90;;;;;;4940954;29;20098;-90
2022/05/05 05:55:44;;;;;;;17.70;15.32;;;8.80;99.90;;;;;;4925889;28;20364;-93
2022/05/05 05:58:11;;;;;;;16.50;14.55;;;9.10;99.90;;;;;;4923489;28;20046;-91
2022/05/05 06:00:38;;;;;;;18.42;14.40;;;9.20;99.90;;;;;;4927356;29;20051;-93
2022/05/05 06:05:48;;;;;;;17.23;13.63;;;9.60;99.90;;;;;;4945429;29;20114;-93
2022/05/05 06:08:13;;;;;;;17.70;13.63;;;9.80;99.90;;;;;;4927349;29;20126;-92
2022/05/05 06:10:39;;;;;;;18.13;13.30;;;10.00;99.90;;;;;;4921893;29;20044;-94
2022/05/05 06:13:05;;;;;;;17.58;12.93;;;10.10;99.90;;;;;;4941786;28;20070;-93
2022/05/05 06:15:31;;;;;;;16.48;12.30;;;10.20;99.90;;;;;;4903009;29;20069;-90
2022/05/05 06:17:56;;;;;;;16.75;12.93;;;10.30;99.90;;;;;;4940635;29;20419;-93
2022/05/05 06:20:22;;;;;;;17.50;12.80;;;10.40;99.90;;;;;;4935768;29;20400;-92
2022/05/05 06:22:50;;;;;;;16.40;12.32;;;10.50;99.90;;;;;;4926118;29;20048;-91
2022/05/05 06:25:16;;;;;;;17.20;13.55;;;10.60;99.90;;;;;;4934173;28;20062;-92
2022/05/05 06:27:41;;;;;;;17.10;12.65;;;10.60;99.90;;;;;;4934135;29;20032;-91
2022/05/05 06:30:13;;;;;;;16.00;13.13;;;10.70;99.90;;;;;;4933121;29;20423;-91
2022/05/05 06:32:39;;;;;;;16.58;12.43;;;10.70;99.90;;;;;;4898791;29;20054;-92
2022/05/05 06:35:05;;;;;;;16.10;13.13;;;10.80;99.90;;;;;;4922274;29;20051;-91
2022/05/05 06:37:31;;;;;;;16.58;12.57;;;10.90;99.90;;;;;;4933270;29;20043;-91
2022/05/05 06:39:56;;;;;;;17.63;13.00;;;11.00;99.90;;;;;;4906479;29;20048;-92
2022/05/05 06:42:22;;;;;;;16.88;11.82;;;11.10;99.90;;;;;;4898658;29;20469;-95
2022/05/05 06:44:48;;;;;;;16.00;12.20;;;11.20;99.90;;;;;;4927208;29;20424;-89
2022/05/05 06:47:13;;;;;;;16.50;12.25;;;11.30;99.90;;;;;;4926657;29;20051;-91
2022/05/05 06:49:39;;;;;;;15.60;11.75;;;11.40;99.90;;;;;;4942433;28;20441;-91
2022/05/05 06:52:05;;;;;;;16.98;11.27;;;11.50;99.90;;;;;;4943548;28;20097;-90
2022/05/05 06:54:30;;;;;;;17.80;11.68;;;11.70;99.90;;;;;;4923535;29;20067;-89
2022/05/05 06:56:56;;;;;;;15.95;10.63;;;11.80;99.90;;;;;;4920365;28;20046;-90
2022/05/05 06:59:22;;;;;;;14.18;10.27;;;12.00;99.90;;;;;;4945984;28;20163;-90
2022/05/05 07:01:54;;;;;;;13.90;10.70;;;12.10;99.90;;;;;;4936663;28;20043;-91
2022/05/05 07:07:07;;;;;;;15.82;10.95;;;12.40;99.90;;;;;;4947342;28;20078;-89
2022/05/05 07:12:17;;;;;;;14.77;9.55;;;12.60;99.90;;;;;;4944803;28;20409;-89
2022/05/05 07:14:44;;;;;;;14.25;9.27;;;12.70;99.90;;;;;;4943370;29;20301;-87
2022/05/05 07:17:10;;;;;;;15.55;10.55;;;12.80;99.90;;;;;;4939448;29;20102;-91
2022/05/05 07:19:36;;;;;;;15.18;9.75;;;12.90;99.90;;;;;;4927654;29;20382;-88
2022/05/05 07:22:03;;;;;;;14.80;9.80;;;13.00;99.90;;;;;;4937150;29;20051;-88
2022/05/05 07:24:30;;;;;;;16.13;9.63;;;13.10;99.90;;;;;;4925081;29;20055;-89
2022/05/05 07:26:56;;;;;;;14.80;9.35;;;13.20;99.90;;;;;;4942594;28;20055;-87
2022/05/05 07:29:21;;;;;;;12.57;8.38;;;13.30;99.90;;;;;;4942755;29;20083;-88
2022/05/05 07:31:47;;;;;;;15.30;9.32;;;13.30;99.90;;;;;;4920497;29;20082;-87
2022/05/05 07:34:13;;;;;;;12.80;8.23;;;13.50;99.90;;;;;;4902957;29;20047;-88
2022/05/05 07:36:39;;;;;;;13.82;7.45;;;13.50;99.90;;;;;;4948563;28;20107;-88
2022/05/05 07:39:04;;;;;;;10.48;7.15;;;13.60;99.90;;;;;;4927338;28;20477;-90
2022/05/05 07:41:31;;;;;;;13.40;7.97;;;13.80;99.90;;;;;;4936402;29;20040;-89
2022/05/05 07:43:57;;;;;;;15.85;8.70;;;13.80;99.90;;;;;;4928907;29;20403;-94
2022/05/05 07:46:24;;;;;;;13.00;7.68;;;13.90;99.90;;;;;;4937765;29;20043;-89
2022/05/05 07:48:50;;;;;;;13.82;7.90;;;14.10;99.90;;;;;;4911490;29;20102;-88
2022/05/05 07:51:16;;;;;;;12.60;7.28;;;14.20;99.90;;;;;;4915129;29;20047;-88
2022/05/05 07:53:41;;;;;;;14.10;7.07;;;14.30;99.90;;;;;;4942372;29;20481;-91
2022/05/05 07:56:07;;;;;;;13.43;7.50;;;14.40;99.90;;;;;;4935272;29;20051;-88
2022/05/05 07:58:34;;;;;;;14.10;7.18;;;14.50;99.90;;;;;;4956737;29;20051;-90
2022/05/05 08:00:59;;;;;;;12.95;7.00;;;14.60;99.90;;;;;;4928605;29;20051;-90
2022/05/05 08:03:25;;;;;;;10.30;6.57;;;14.60;99.90;;;;;;4928493;29;20046;-91
2022/05/05 08:05:51;;;;;;;12.50;7.13;;;14.70;99.90;;;;;;4927827;29;20078;-93
2022/05/05 08:08:16;;;;;;;13.30;7.38;;;14.80;99.90;;;;;;4938127;29;20036;-91
2022/05/05 08:10:42;;;;;;;12.07;7.20;;;14.90;99.90;;;;;;4924789;29;20043;-92
2022/05/05 08:13:09;;;;;;;10.43;6.60;;;15.00;99.90;;;;;;4949239;28;20055;-92
2022/05/05 08:15:35;;;;;;;12.93;7.22;;;15.00;99.90;;;;;;4931254;29;20062;-91
2022/05/05 08:18:01;;;;;;;11.18;6.93;;;15.00;99.90;;;;;;4910749;29;20036;-89
2022/05/05 08:20:27;;;;;;;10.63;6.22;;;15.10;99.90;;;;;;4952190;28;20408;-92
2022/05/05 08:22:53;;;;;;;9.77;6.00;;;15.20;99.90;;;;;;4931461;29;20510;-92
2022/05/05 08:30:47;;;;;;;11.05;6.63;;;15.30;99.90;;;;;;4932174;29;20433;-92
2022/05/05 08:33:13;;;;;;;9.82;6.25;;;15.20;99.90;;;;;;4946274;29;20130;-90
2022/05/05 08:35:41;;;;;;;11.70;6.38;;;15.30;99.90;;;;;;4930792;29;20043;-90
2022/05/05 08:38:07;;;;;;;11.10;6.82;;;15.30;99.90;;;;;;4927363;29;20382;-90
2022/05/05 08:40:34;;;;;;;11.55;6.88;;;15.40;99.90;;;;;;4927305;29;20102;-92
2022/05/05 08:43:00;;;;;;;10.65;6.32;;;15.50;99.90;;;;;;4920677;29;20035;-92
2022/05/05 08:45:28;;;;;;;13.25;7.05;;;15.50;99.90;;;;;;4905732;28;20389;-93
2022/05/05 08:47:54;;;;;;;11.30;6.28;;;15.60;99.90;;;;;;4925068;29;20044;-91
2022/05/05 08:50:23;;;;;;;10.40;5.97;;;15.60;99.90;;;;;;4938714;29;20134;-89
2022/05/05 08:52:50;;;;;;;11.30;6.00;;;15.90;99.90;;;;;;4935057;29;20063;-91
2022/05/05 08:55:17;;;;;;;9.50;5.90;;;16.00;99.90;;;;;;4963688;28;20463;-89
2022/05/05 08:57:43;;;;;;;11.25;6.03;;;16.20;99.90;;;;;;4949511;29;20110;-89
2022/05/05 09:00:10;;;;;;;10.32;6.35;;;16.30;99.90;;;;;;4941011;28;20070;-89
2022/05/05 09:02:36;;;;;;;11.73;6.00;;;16.40;99.90;;;;;;4909878;29;20075;-90
2022/05/05 09:05:05;;;;;;;10.40;6.35;;;16.40;99.90;;;;;;4929620;29;20103;-90
2022/05/05 09:07:58;;;;;;;10.55;6.15;;;16.40;99.90;;;;;;4930032;29;20040;-91
2022/05/05 09:10:45;;;;;;;11.60;6.22;;;16.40;99.20;;;;;;4937030;28;20134;-88
2022/05/05 09:13:11;;;;;;;10.88;6.32;;;16.40;99.90;;;;;;4924716;29;20054;-88
2022/05/05 09:15:40;;;;;;;11.85;6.40;;;16.40;99.90;;;;;;4926661;29;20484;-87
2022/05/05 09:18:17;;;;;;;9.75;6.20;;;16.30;99.90;;;;;;4912517;29;20043;-87
2022/05/05 09:20:44;;;;;;;11.30;6.50;;;16.40;99.90;;;;;;4937447;29;20403;-87
2022/05/05 09:23:26;;;;;;;10.27;6.22;;;16.40;99.90;;;;;;4943527;29;20393;-88
2022/05/05 09:25:52;;;;;;;11.98;6.90;;;16.40;99.90;;;;;;4941182;28;20385;-88
2022/05/05 09:28:18;;;;;;;12.52;7.03;;;16.40;99.90;;;;;;4947746;29;20039;-87
2022/05/05 09:30:52;;;;;;;12.35;7.10;;;16.50;99.90;;;;;;4926166;28;20383;-87
2022/05/05 09:33:33;;;;;;;11.52;7.00;;;16.50;99.10;;;;;;4926805;29;20062;-85
2022/05/05 09:36:02;;;;;;;10.88;7.53;;;16.60;99.80;;;;;;4924697;29;20059;-89
2022/05/05 09:38:46;;;;;;;12.07;7.10;;;16.60;99.20;;;;;;4923613;29;20052;-89
2022/05/05 09:41:12;;;;;;;10.73;7.38;;;16.80;99.80;;;;;;4944384;29;20047;-88
2022/05/05 09:43:38;;;;;;;11.63;7.15;;;16.80;98.90;;;;;;4924375;29;20451;-89
2022/05/05 09:46:26;;;;;;;11.43;7.00;;;16.90;98.70;;;;;;4922292;28;20051;-88
2022/05/05 09:49:15;;;;;;;9.50;6.30;;;16.90;99.20;;;;;;4915978;29;20054;-88
2022/05/05 09:57:45;;;;;;;12.25;6.93;;;17.00;97.60;;;;;;4940489;29;20047;-91
2022/05/05 10:05:51;;;;;;;11.88;7.15;;;17.30;98.10;;;;;;4925393;29;20051;-90
2022/05/05 10:08:23;;;;;;;11.10;6.55;;;17.40;97.30;;;;;;4925067;29;20043;-89
2022/05/05 10:10:49;;;;;;;10.48;6.65;;;17.40;96.40;;;;;;4923974;29;20051;-89
2022/05/05 10:13:20;;;;;;;11.48;7.22;;;17.40;96.90;;;;;;4927255;29;20855;-90
2022/05/05 10:15:48;;;;;;;11.30;7.15;;;17.50;96.10;;;;;;4923268;28;20055;-91
2022/05/05 10:18:16;;;;;;;11.02;6.57;;;17.50;96.10;;;;;;4946633;28;20048;-90
2022/05/05 10:20:41;;;;;;;12.85;7.60;;;17.60;95.90;;;;;;4929294;29;20043;-91
2022/05/05 10:23:14;;;;;;;10.85;7.32;;;17.70;96.00;;;;;;4935865;29;20594;-89
2022/05/05 10:25:40;;;;;;;10.55;7.40;;;17.70;95.00;;;;;;4926654;29;20055;-90
2022/05/05 10:28:37;;;;;;;11.43;7.70;;;17.60;95.40;;;;;;4920589;29;20210;-89
2022/05/05 10:31:02;;;;;;;11.68;6.85;;;17.70;95.00;;;;;;4928713;29;20043;-90
2022/05/05 10:34:00;;;;;;;11.25;6.55;;;17.70;94.80;;;;;;4915287;28;20039;-88
2022/05/05 10:36:27;;;;;;;8.52;5.40;;;17.80;95.70;;;;;;4943621;28;20061;-89
2022/05/05 10:38:54;;;;;;;12.50;6.80;;;17.80;95.60;;;;;;4905300;29;20417;-90
2022/05/05 10:41:40;;;;;;;11.75;5.97;;;17.80;94.60;;;;;;4957569;28;20050;-94
2022/05/05 10:44:18;;;;;;;9.68;5.15;;;17.90;94.60;;;;;;4931889;29;20056;-90
2022/05/05 10:46:54;;;;;;;9.88;5.45;;;18.00;94.40;;;;;;4946709;28;20068;-91
2022/05/05 10:49:34;;;;;;;8.77;5.68;;;18.00;93.40;;;;;;4955304;28;20080;-92
2022/05/05 10:52:12;;;;;;;10.80;6.35;;;18.10;93.80;;;;;;4930903;29;20055;-95
2022/05/05 10:54:42;;;;;;;9.55;6.72;;;18.20;94.50;;;;;;4918433;29;20085;-95
2022/05/05 10:57:26;;;;;;;11.63;6.63;;;18.30;94.30;;;;;;4924039;29;20051;-94
2022/05/05 11:00:11;;;;;;;9.90;6.75;;;18.30;90.80;;;;;;4939855;28;20126;-94
2022/05/05 11:02:38;;;;;;;11.05;6.90;;;18.30;91.00;;;;;;4934690;28;20775;-94
2022/05/05 11:05:35;;;;;;;9.63;5.68;;;18.30;92.40;;;;;;4926744;29;20048;-94
2022/05/05 11:08:15;;;;;;;11.05;6.15;;;18.40;91.50;;;;;;4933733;29;20158;-91
2022/05/05 11:10:40;;;;;;;11.30;6.50;;;18.40;92.80;;;;;;4936077;29;20079;-89
2022/05/05 11:13:25;;;;;;;9.35;5.85;;;18.40;92.50;;;;;;4928365;29;20058;-88
2022/05/05 11:21:32;;;;;;;11.10;5.93;;;18.60;92.50;;;;;;4929463;29;20129;-88
2022/05/05 11:21:49;;;;;;;9.05;5.50;;;18.60;90.80;;;;;;4930922;29;20054;-89
2022/05/05 11:24:27;;;;;;;10.73;6.07;;;18.70;91.60;;;;;;4918125;29;20476;-90
2022/05/05 11:26:52;;;;;;;9.93;6.07;;;18.70;91.10;;;;;;4912841;29;20050;-89
2022/05/05 11:29:18;;;;;;;8.55;5.75;;;18.80;91.00;;;;;;4941205;28;20043;-85
2022/05/05 11:31:59;;;;;;;9.90;6.28;;;18.80;90.60;;;;;;4935730;29;20047;-90
2022/05/05 11:34:33;;;;;;;10.80;5.60;;;18.80;87.60;;;;;;4933393;29;20046;-88
2022/05/05 11:37:00;;;;;;;10.55;5.70;;;18.80;88.60;;;;;;4943990;28;20047;-88
2022/05/05 11:39:27;;;;;;;9.52;5.18;;;18.90;88.40;;;;;;4938486;29;20035;-88
2022/05/05 11:42:04;;;;;;;8.00;4.97;;;18.90;90.10;;;;;;4920367;28;20043;-88
2022/05/05 11:44:30;;;;;;;9.80;5.78;;;19.00;90.60;;;;;;4920200;29;20098;-87
2022/05/05 11:46:59;;;;;;;10.38;6.28;;;19.10;90.00;;;;;;4919043;29;20121;-88
2022/05/05 11:49:32;;;;;;;9.27;5.22;;;19.10;87.00;;;;;;4924140;29;20051;-87
2022/05/05 11:51:59;;;;;;;12.05;6.70;;;19.10;88.80;;;;;;4891566;29;1029740;-88
2022/05/05 11:54:28;;;;;;;9.88;6.05;;;19.20;88.60;;;;;;4946047;28;20141;-87
2022/05/05 11:56:54;;;;;;;10.40;6.25;;;19.20;89.30;;;;;;4932004;29;20046;-86
2022/05/05 12:02:15;;;;;;;10.00;6.10;;;19.30;86.40;;;;;;4924118;29;20047;-90
2022/05/05 12:04:46;;;;;;;9.77;6.32;;;19.10;84.90;;;;;;4946588;29;20050;-85
2022/05/05 12:07:20;;;;;;;10.55;6.78;;;19.10;83.70;;;;;;4942686;29;20518;-92
2022/05/05 12:09:51;;;;;;;10.48;6.03;;;19.10;83.80;;;;;;4933135;29;20404;-90
2022/05/05 12:12:18;;;;;;;10.68;5.38;;;19.10;84.00;;;;;;4914897;29;20099;-92
2022/05/05 12:14:52;;;;;;;12.20;7.00;;;19.30;86.70;;;;;;4941360;29;20055;-92
2022/05/05 12:17:31;;;;;;;8.73;5.43;;;19.40;85.00;;;;;;4943466;29;20040;-95
2022/05/05 12:19:59;;;;;;;9.10;5.20;;;19.30;81.40;;;;;;4932391;29;20052;-92
2022/05/05 12:22:33;;;;;;;10.77;6.43;;;19.20;80.80;;;;;;4939036;29;20416;-94
2022/05/05 12:25:16;;;;;;;10.18;6.28;;;19.20;79.90;;;;;;4925984;29;20074;-91
2022/05/05 12:27:41;;;;;;;9.25;6.15;;;19.10;79.80;;;;;;4945243;29;20043;-90
2022/05/05 12:30:09;;;;;;;9.10;5.40;;;19.00;81.50;;;;;;4922735;29;20035;-91
2022/05/05 12:32:34;;;;;;;10.68;5.70;;;18.90;81.10;;;;;;4926628;29;20142;-88
2022/05/05 12:35:11;;;;;;;11.00;6.32;;;18.90;81.10;;;;;;4929825;29;20536;-92
2022/05/05 12:37:37;;;;;;;10.73;7.20;;;18.80;80.20;;;;;;4932404;29;20404;-93
2022/05/05 12:40:05;;;;;;;10.35;7.13;;;18.80;80.10;;;;;;4938429;29;20492;-93
2022/05/05 12:42:43;;;;;;;11.15;6.20;;;18.80;80.20;;;;;;4961643;28;20023;-91
2022/05/05 12:45:17;;;;;;;10.55;5.60;;;18.90;80.00;;;;;;4917026;29;20050;-91
2022/05/05 12:47:45;;;;;;;8.45;5.22;;;19.10;80.80;;;;;;4930020;29;20046;-90
2022/05/05 12:50:35;;;;;;;9.07;5.88;;;19.20;79.60;;;;;;4936751;29;20102;-89
2022/05/05 13:01:25;;;;;;;10.40;6.30;;;19.30;78.70;;;;;;4914365;29;20055;-92
2022/05/05 13:03:55;;;;;;;9.93;5.22;;;19.30;78.80;;;;;;4898720;29;20055;-91
2022/05/05 13:06:21;;;;;;;9.23;5.53;;;19.40;77.50;;;;;;4931399;29;20043;-91
2022/05/05 13:08:47;;;;;;;9.80;6.00;;;19.50;78.10;;;;;;4931837;29;20384;-91
2022/05/05 13:11:15;;;;;;;9.60;6.45;;;19.50;77.40;;;;;;4914948;29;20054;-90
2022/05/05 13:13:41;;;;;;;10.80;7.38;;;19.70;76.40;;;;;;4913938;29;20058;-92
2022/05/05 13:16:06;;;;;;;12.40;6.45;;;19.70;76.20;;;;;;4901684;29;20130;-90
2022/05/05 13:18:32;;;;;;;9.88;6.00;;;19.80;78.30;;;;;;4903574;29;20134;-89
2022/05/05 13:20:57;;;;;;;12.23;7.43;;;19.80;79.60;;;;;;4913658;29;20505;-88
2022/05/05 13:23:23;;;;;;;10.90;6.15;;;19.70;77.60;;;;;;4914454;29;20521;-94
2022/05/05 13:25:49;;;;;;;9.25;6.10;;;19.60;78.00;;;;;;4913931;29;20408;-91
2022/05/05 13:28:14;;;;;;;9.68;5.80;;;19.60;76.80;;;;;;4931657;29;20044;-92
2022/05/05 13:30:40;;;;;;;9.48;6.10;;;19.50;75.70;;;;;;4882119;29;20043;-91
2022/05/05 13:33:05;;;;;;;10.52;6.15;;;19.40;76.20;;;;;;4931896;29;20039;-93
2022/05/05 13:35:31;;;;;;;10.18;6.43;;;19.40;76.60;;;;;;4914419;29;20035;-93
2022/05/05 13:38:00;;;;;;;10.50;6.53;;;19.30;76.70;;;;;;4917572;29;20055;-94